createdAt,value
2023-04-04T00:02:04.253Z,22.07
2023-04-04T00:04:37.470Z,23.90
2023-04-04T00:07:10.442Z,23.40
2023-04-04T00:09:43.568Z,21.48
2023-04-04T00:12:17.894Z,19.20
2023-04-04T00:14:51.309Z,18.55
2023-04-04T00:17:24.811Z,19.65
2023-04-04T00:19:58.325Z,18.80
2023-04-04T00:22:31.839Z,23.07
2023-04-04T00:25:05.066Z,20.20
2023-04-04T00:27:38.541Z,21.13
2023-04-04T00:30:13.400Z,19.80
2023-04-04T00:32:47.455Z,21.00
2023-04-04T00:35:20.610Z,25.43
2023-04-04T00:37:53.958Z,21.53
2023-04-04T00:40:26.886Z,24.80
2023-04-04T00:43:02.207Z,22.82
2023-04-04T00:45:36.648Z,18.25
2023-04-04T00:48:09.509Z,19.30
2023-04-04T00:50:42.923Z,21.53
2023-04-04T00:53:16.622Z,23.13
2023-04-04T00:55:49.602Z,21.17
2023-04-04T00:58:22.829Z,21.23
2023-04-04T01:00:56.013Z,23.73
2023-04-04T01:03:29.875Z,25.60
2023-04-04T01:06:04.443Z,26.37
2023-04-04T01:11:14.383Z,25.48
2023-04-04T01:13:47.702Z,24.67
2023-04-04T01:16:21.903Z,26.50
2023-04-04T01:18:55.304Z,23.35
2023-04-04T01:21:29.840Z,23.22
2023-04-04T01:24:04.819Z,25.35
2023-04-04T01:26:39.788Z,23.77
2023-04-04T01:29:12.728Z,24.17
2023-04-04T01:31:56.693Z,25.70
2023-04-04T01:34:53.348Z,26.37
2023-04-04T01:37:48.835Z,23.18
2023-04-04T01:40:35.835Z,22.40
2023-04-04T01:43:10.599Z,26.45
2023-04-04T01:45:46.437Z,24.95
2023-04-04T01:48:19.718Z,24.85
2023-04-04T01:50:54.331Z,22.93
2023-04-04T01:53:28.848Z,25.43
2023-04-04T01:56:02.819Z,21.60
2023-04-04T01:58:38.026Z,29.75
2023-04-04T02:01:11.283Z,27.70
2023-04-04T02:06:17.932Z,26.75
2023-04-04T02:08:52.348Z,29.40
2023-04-04T02:11:26.265Z,26.43
2023-04-04T02:13:59.397Z,25.35
2023-04-04T02:16:33.795Z,24.77
2023-04-04T02:19:06.567Z,27.52
2023-04-04T02:21:41.747Z,24.00
2023-04-04T02:24:14.644Z,24.75
2023-04-04T02:26:47.525Z,28.38
2023-04-04T02:29:20.988Z,25.43
2023-04-04T02:31:53.961Z,26.82
2023-04-04T02:34:26.877Z,28.52
2023-04-04T02:37:01.012Z,24.45
2023-04-04T02:39:34.516Z,25.23
2023-04-04T02:42:07.810Z,24.30
2023-04-04T02:44:40.986Z,24.60
2023-04-04T02:47:15.446Z,26.05
2023-04-04T02:49:48.686Z,27.65
2023-04-04T02:52:23.315Z,24.25
2023-04-04T02:54:56.158Z,26.48
2023-04-04T02:57:30.922Z,28.38
2023-04-04T03:00:04.781Z,26.20
2023-04-04T03:05:11.546Z,27.62
2023-04-04T03:07:44.474Z,28.62
2023-04-04T03:10:17.379Z,25.68
2023-04-04T03:12:50.245Z,27.60
2023-04-04T03:15:24.014Z,26.15
2023-04-04T03:20:31.802Z,27.17
2023-04-04T03:23:04.584Z,24.82
2023-04-04T03:25:37.469Z,24.43
2023-04-04T03:30:45.149Z,26.48
2023-04-04T03:33:18.470Z,31.02
2023-04-04T03:35:51.511Z,27.73
2023-04-04T03:38:25.962Z,22.32
2023-04-04T03:41:05.899Z,27.98
2023-04-04T03:43:39.357Z,28.17
2023-04-04T03:46:14.369Z,24.75
2023-04-04T03:48:48.947Z,25.82
2023-04-04T03:51:28.879Z,29.12
2023-04-04T03:54:01.842Z,26.60
2023-04-04T03:56:35.085Z,26.85
2023-04-04T03:59:09.906Z,25.75
2023-04-04T04:01:42.891Z,28.27
2023-04-04T04:04:16.470Z,28.05
2023-04-04T04:06:49.965Z,26.35
2023-04-04T04:09:23.260Z,24.32
2023-04-04T04:11:56.985Z,30.30
2023-04-04T04:14:29.993Z,27.70
2023-04-04T04:17:04.985Z,30.92
2023-04-04T04:19:39.655Z,31.52
2023-04-04T04:22:13.265Z,27.40
2023-04-04T04:24:46.424Z,26.80
2023-04-04T04:27:19.851Z,26.47
2023-04-04T04:32:27.630Z,26.90
2023-04-04T04:35:01.763Z,27.65
2023-04-04T04:37:36.833Z,27.87
2023-04-04T04:40:11.468Z,29.23
2023-04-04T04:42:47.723Z,26.87
2023-04-04T04:45:22.936Z,29.40
2023-04-04T04:47:57.783Z,30.12
2023-04-04T04:50:31.346Z,27.48
2023-04-04T04:53:05.137Z,25.75
2023-04-04T04:55:38.873Z,28.67
2023-04-04T04:58:14.361Z,30.45
2023-04-04T05:00:49.740Z,28.23
2023-04-04T05:03:23.385Z,24.27
2023-04-04T05:05:57.634Z,23.95
2023-04-04T05:08:30.730Z,25.52
2023-04-04T05:11:09.349Z,24.18
2023-04-04T05:13:43.364Z,24.35
2023-04-04T05:16:16.634Z,25.00
2023-04-04T05:18:50.490Z,26.27
2023-04-04T05:21:24.035Z,26.75
2023-04-04T05:23:59.001Z,27.02
2023-04-04T05:26:32.818Z,28.83
2023-04-04T05:29:05.971Z,27.55
2023-04-04T05:31:39.269Z,24.97
2023-04-04T05:34:14.093Z,31.02
2023-04-04T05:36:47.796Z,29.72
2023-04-04T05:39:21.734Z,28.87
2023-04-04T05:41:59.267Z,31.68
2023-04-04T05:44:33.972Z,29.98
2023-04-04T05:47:07.882Z,34.45
2023-04-04T05:49:42.436Z,34.67
2023-04-04T05:52:17.280Z,31.10
2023-04-04T05:57:25.558Z,27.93
2023-04-04T06:00:00.280Z,29.92
2023-04-04T06:02:35.609Z,26.93
2023-04-04T06:05:10.651Z,26.55
2023-04-04T06:07:44.440Z,26.73
2023-04-04T06:10:17.877Z,31.23
2023-04-04T06:12:51.758Z,29.37
2023-04-04T06:15:25.845Z,26.85
2023-04-04T06:17:59.919Z,29.57
2023-04-04T06:20:35.871Z,28.77
2023-04-04T06:23:10.385Z,29.40
2023-04-04T06:25:45.015Z,28.55
2023-04-04T06:30:52.754Z,25.02
2023-04-04T06:33:28.392Z,25.57
2023-04-04T06:36:01.739Z,23.12
2023-04-04T06:38:35.465Z,23.42
2023-04-04T06:41:13.546Z,26.80
2023-04-04T06:43:48.206Z,26.68
2023-04-04T06:46:22.014Z,26.35
2023-04-04T06:48:55.336Z,25.80
2023-04-04T06:51:29.330Z,25.05
2023-04-04T06:54:03.403Z,21.37
2023-04-04T06:56:37.004Z,20.72
2023-04-04T06:59:13.041Z,25.43
2023-04-04T07:01:46.995Z,21.17
2023-04-04T07:04:22.853Z,20.08
2023-04-04T07:06:56.003Z,16.90
2023-04-04T07:09:29.845Z,16.23
2023-04-04T07:12:03.060Z,19.23
2023-04-04T07:14:36.867Z,18.40
2023-04-04T07:17:17.465Z,17.87
2023-04-04T07:19:45.122Z,18.77
2023-04-04T07:22:18.097Z,18.23
2023-04-04T07:24:51.772Z,16.45
2023-04-04T07:27:25.021Z,18.98
2023-04-04T07:29:58.507Z,16.05
2023-04-04T07:32:31.755Z,18.60
2023-04-04T07:35:07.236Z,20.05
2023-04-04T07:37:40.965Z,17.65
2023-04-04T07:40:14.566Z,18.90
2023-04-04T07:42:50.728Z,16.93
2023-04-04T07:45:23.765Z,14.50
2023-04-04T07:47:56.843Z,17.73
2023-04-04T07:50:29.920Z,17.87
2023-04-04T07:53:03.835Z,15.80
2023-04-04T07:55:36.922Z,16.07
2023-04-04T07:58:11.129Z,18.60
2023-04-04T08:00:44.122Z,16.37
2023-04-04T08:03:19.599Z,19.20
2023-04-04T08:05:52.967Z,18.05
2023-04-04T08:08:26.295Z,19.70
2023-04-04T08:10:59.483Z,17.45
2023-04-04T08:13:33.452Z,17.98
2023-04-04T08:16:06.845Z,18.10
2023-04-04T08:18:41.063Z,19.35
2023-04-04T08:21:16.110Z,21.60
2023-04-04T08:23:50.216Z,16.75
2023-04-04T08:26:23.577Z,20.05
2023-04-04T08:28:56.622Z,19.57
2023-04-04T08:31:31.086Z,17.05
2023-04-04T08:34:06.423Z,19.00
2023-04-04T08:36:39.852Z,19.20
2023-04-04T08:39:13.894Z,18.80
2023-04-04T08:41:48.605Z,16.05
2023-04-04T08:44:23.212Z,19.80
2023-04-04T08:46:57.124Z,18.25
2023-04-04T08:49:35.473Z,19.23
2023-04-04T08:52:09.570Z,19.70
2023-04-04T08:54:44.221Z,17.50
2023-04-04T08:57:17.905Z,19.37
2023-04-04T08:59:51.244Z,17.25
2023-04-04T09:02:47.158Z,17.63
2023-04-04T09:05:21.396Z,20.72
2023-04-04T09:07:56.702Z,21.62
2023-04-04T09:10:30.210Z,16.10
2023-04-04T09:13:14.717Z,17.10
2023-04-04T09:15:45.000Z,19.12
2023-04-04T09:18:19.266Z,14.63
2023-04-04T09:20:53.607Z,16.35
2023-04-04T09:23:27.624Z,17.77
2023-04-04T09:26:08.282Z,17.75
2023-04-04T09:28:42.665Z,16.82
2023-04-04T09:31:17.653Z,14.83
2023-04-04T09:33:53.336Z,12.98
2023-04-04T09:36:28.303Z,14.40
2023-04-04T09:39:02.170Z,14.03
2023-04-04T09:41:35.751Z,15.78
2023-04-04T09:44:13.425Z,13.15
2023-04-04T09:46:46.635Z,13.15
2023-04-04T09:49:22.945Z,12.90
2023-04-04T09:51:56.870Z,18.95
2023-04-04T09:54:30.825Z,21.57
2023-04-04T09:57:04.967Z,17.62
2023-04-04T09:59:39.179Z,12.10
2023-04-04T10:02:12.725Z,13.75
2023-04-04T10:04:48.893Z,13.75
2023-04-04T10:07:22.077Z,12.45
2023-04-04T10:09:55.166Z,14.85
2023-04-04T10:12:29.189Z,16.30
2023-04-04T10:15:03.521Z,20.82
2023-04-04T10:17:42.810Z,14.10
2023-04-04T10:20:16.417Z,14.90
2023-04-04T10:22:52.152Z,12.88
2023-04-04T10:25:26.010Z,10.03
2023-04-04T10:27:58.863Z,11.12
2023-04-04T10:30:33.255Z,14.78
2023-04-04T10:33:17.672Z,13.50
2023-04-04T10:35:54.261Z,14.17
2023-04-04T10:38:30.571Z,13.53
2023-04-04T10:41:04.950Z,13.22
2023-04-04T10:43:45.505Z,13.43
2023-04-04T10:46:20.775Z,17.77
2023-04-04T10:48:54.498Z,14.03
2023-04-04T10:51:27.778Z,14.07
2023-04-04T10:54:01.512Z,11.75
2023-04-04T10:56:36.001Z,11.20
2023-04-04T10:59:17.639Z,12.83
2023-04-04T11:01:53.478Z,12.03
2023-04-04T11:04:42.984Z,10.63
2023-04-04T11:07:18.315Z,12.55
2023-04-04T11:09:57.274Z,14.50
2023-04-04T11:12:38.346Z,14.73
2023-04-04T11:15:14.704Z,16.67
2023-04-04T11:18:17.280Z,20.97
2023-04-04T11:20:41.061Z,15.25
2023-04-04T11:23:27.384Z,14.50
2023-04-04T11:26:01.470Z,14.25
2023-04-04T11:28:46.614Z,17.25
2023-04-04T11:31:24.310Z,14.47
2023-04-04T11:34:11.974Z,9.83
2023-04-04T11:36:52.294Z,12.95
2023-04-04T11:39:33.883Z,11.22
2023-04-04T11:42:16.100Z,10.72
2023-04-04T11:45:04.584Z,12.60
2023-04-04T11:47:38.223Z,21.27
2023-04-04T11:50:13.930Z,7.95
2023-04-04T11:52:47.019Z,8.18
2023-04-04T11:55:27.203Z,7.45
2023-04-04T11:58:13.044Z,6.60
2023-04-04T12:00:48.312Z,8.55
2023-04-04T12:03:22.258Z,19.02
2023-04-04T12:05:55.769Z,11.25
2023-04-04T12:08:30.868Z,23.65
2023-04-04T12:11:06.857Z,6.40
2023-04-04T12:13:47.146Z,6.15
2023-04-04T12:16:23.231Z,4.00
2023-04-04T12:18:58.307Z,7.35
2023-04-04T12:21:33.868Z,7.10
2023-04-04T12:24:09.778Z,6.53
2023-04-04T12:26:46.117Z,4.15
2023-04-04T12:29:22.471Z,14.65
2023-04-04T12:31:57.880Z,5.83
2023-04-04T12:34:39.198Z,3.17
2023-04-04T12:37:14.652Z,3.77
2023-04-04T12:39:52.684Z,4.37
2023-04-04T12:42:26.739Z,4.58
2023-04-04T12:44:59.741Z,3.33
2023-04-04T12:47:33.423Z,3.00
2023-04-04T12:50:08.746Z,13.30
2023-04-04T12:52:42.761Z,3.15
2023-04-04T12:55:15.993Z,26.10
2023-04-04T12:57:50.529Z,3.10
2023-04-04T13:00:24.211Z,6.22
2023-04-04T13:02:58.690Z,3.72
2023-04-04T13:05:42.506Z,4.15
2023-04-04T13:08:16.221Z,2.53
2023-04-04T13:11:05.727Z,1.98
2023-04-04T13:13:41.453Z,2.95
2023-04-04T13:16:18.706Z,4.20
2023-04-04T13:18:52.593Z,3.20
2023-04-04T13:21:26.504Z,3.60
2023-04-04T13:26:32.322Z,2.85
2023-04-04T13:29:05.672Z,11.43
2023-04-04T13:31:40.108Z,2.30
2023-04-04T13:34:13.132Z,2.83
2023-04-04T13:36:47.469Z,3.37
2023-04-04T13:39:21.272Z,5.20
2023-04-04T13:41:54.402Z,2.37
2023-04-04T13:44:28.220Z,18.87
2023-04-04T13:47:01.006Z,2.30
2023-04-04T13:49:33.927Z,6.35
2023-04-04T13:52:06.977Z,2.08
2023-04-04T13:54:40.178Z,2.05
2023-04-04T13:57:13.585Z,5.77
2023-04-04T13:59:46.408Z,5.03
2023-04-04T14:02:20.131Z,5.00
2023-04-04T14:04:53.357Z,8.00
2023-04-04T14:07:27.365Z,2.40
2023-04-04T14:10:01.596Z,10.95
2023-04-04T14:12:35.333Z,4.40
2023-04-04T14:15:09.623Z,5.28
2023-04-04T14:17:43.743Z,5.17
2023-04-04T14:20:17.025Z,4.42
2023-04-04T14:22:50.038Z,2.13
2023-04-04T14:25:23.527Z,3.65
2023-04-04T14:27:57.709Z,2.95
2023-04-04T14:30:30.929Z,1.82
2023-04-04T14:33:04.706Z,4.15
2023-04-04T14:38:11.747Z,2.62
2023-04-04T14:40:45.685Z,6.08
2023-04-04T14:43:18.676Z,13.05
2023-04-04T14:45:52.678Z,9.30
2023-04-04T14:48:26.290Z,12.33
2023-04-04T14:50:59.527Z,3.53
2023-04-04T14:53:34.222Z,4.92
2023-04-04T14:56:08.191Z,3.37
2023-04-04T14:58:42.143Z,2.40
2023-04-04T15:03:51.393Z,2.52
2023-04-04T15:08:57.844Z,6.53
2023-04-04T15:11:30.861Z,4.53
2023-04-04T15:16:37.380Z,23.73
2023-04-04T15:19:11.688Z,5.17
2023-04-04T15:21:45.273Z,14.30
2023-04-04T15:24:18.598Z,9.65
2023-04-04T15:26:52.749Z,26.87
2023-04-04T15:29:27.294Z,8.43
2023-04-04T15:32:00.537Z,3.77
2023-04-04T15:34:33.956Z,4.67
2023-04-04T15:37:07.001Z,5.87
2023-04-04T15:39:52.269Z,13.65
2023-04-04T15:42:17.261Z,6.97
2023-04-04T15:44:51.742Z,10.93
2023-04-04T15:47:24.552Z,9.75
2023-04-04T15:49:57.426Z,5.58
2023-04-04T15:52:30.924Z,10.68
2023-04-04T15:55:04.932Z,6.47
2023-04-04T15:57:38.613Z,9.45
2023-04-04T16:00:13.725Z,9.58
2023-04-04T16:02:48.560Z,9.40
2023-04-04T16:05:21.880Z,8.57
2023-04-04T16:07:55.248Z,9.63
2023-04-04T16:10:28.781Z,5.90
2023-04-04T16:13:01.978Z,15.40
2023-04-04T16:15:35.558Z,9.90
2023-04-04T16:18:09.142Z,19.98
2023-04-04T16:20:42.715Z,13.70
2023-04-04T16:23:16.378Z,14.80
2023-04-04T16:25:51.647Z,10.23
2023-04-04T16:28:24.671Z,11.20
2023-04-04T16:31:00.007Z,7.97
2023-04-04T16:33:34.191Z,7.80
2023-04-04T16:36:07.885Z,17.48
2023-04-04T16:41:13.635Z,7.12
2023-04-04T16:43:49.570Z,15.35
2023-04-04T16:46:23.069Z,5.92
2023-04-04T16:48:58.024Z,5.60
2023-04-04T16:54:05.305Z,10.93
2023-04-04T16:56:39.149Z,9.20
2023-04-04T17:01:47.295Z,14.05
2023-04-04T17:04:20.980Z,12.35
2023-04-04T17:06:55.146Z,10.65
2023-04-04T17:09:28.387Z,11.35
2023-04-04T17:12:03.552Z,6.37
2023-04-04T17:14:37.572Z,5.85
2023-04-04T17:17:10.832Z,7.72
2023-04-04T17:19:44.908Z,9.85
2023-04-04T17:24:50.719Z,12.63
2023-04-04T17:27:23.997Z,10.10
2023-04-04T17:29:57.501Z,8.30
2023-04-04T17:32:30.770Z,8.53
2023-04-04T17:35:03.817Z,40.38
2023-04-04T17:37:37.666Z,45.50
2023-04-04T17:40:11.797Z,52.27
2023-04-04T17:42:45.055Z,66.07
2023-04-04T17:45:19.833Z,55.12
2023-04-04T17:47:53.228Z,59.13
2023-04-04T17:50:26.652Z,47.85
2023-04-04T17:53:01.886Z,54.40
2023-04-04T17:55:35.719Z,16.15
2023-04-04T17:58:09.509Z,26.20
2023-04-04T18:00:42.648Z,11.05
2023-04-04T18:03:18.309Z,8.00
2023-04-04T18:05:52.965Z,7.10
2023-04-04T18:10:59.826Z,9.40
2023-04-04T18:13:33.573Z,10.48
2023-04-04T18:16:07.737Z,6.60
2023-04-04T18:18:42.374Z,9.40
2023-04-04T18:21:15.290Z,10.20
2023-04-04T18:26:22.419Z,10.13
2023-04-04T18:28:56.628Z,11.00
2023-04-04T18:31:29.833Z,9.43
2023-04-04T18:34:02.954Z,14.13
2023-04-04T18:39:09.429Z,39.78
2023-04-04T18:41:43.418Z,29.02
2023-04-04T18:44:17.233Z,30.55
2023-04-04T18:46:52.067Z,18.27
2023-04-04T18:49:25.040Z,13.85
2023-04-04T18:51:58.503Z,7.83
2023-04-04T18:54:32.225Z,14.33
2023-04-04T18:57:05.503Z,15.50
2023-04-04T18:59:38.943Z,14.43
2023-04-04T19:02:12.942Z,12.25
2023-04-04T19:04:48.586Z,9.78
2023-04-04T19:07:24.486Z,8.78
2023-04-04T19:09:58.634Z,9.10
2023-04-04T19:12:32.014Z,9.00
2023-04-04T19:15:07.249Z,8.25
2023-04-04T19:17:41.528Z,7.80
2023-04-04T19:20:15.109Z,10.98
2023-04-04T19:22:48.241Z,12.70
2023-04-04T19:25:22.053Z,12.82
2023-04-04T19:27:55.073Z,15.55
2023-04-04T19:30:48.780Z,11.50
2023-04-04T19:33:26.050Z,11.40
2023-04-04T19:36:03.114Z,12.75
2023-04-04T19:38:42.848Z,14.55
2023-04-04T19:41:23.371Z,15.55
2023-04-04T19:43:56.837Z,16.23
2023-04-04T19:46:33.249Z,14.90
2023-04-04T19:49:14.212Z,22.77
2023-04-04T19:51:56.206Z,20.43
2023-04-04T19:54:37.887Z,27.10
2023-04-04T19:57:18.829Z,26.73
2023-04-04T20:00:02.215Z,29.95
2023-04-04T20:02:50.721Z,39.15
2023-04-04T20:05:43.490Z,31.75
2023-04-04T20:08:17.138Z,37.00
2023-04-04T20:10:52.126Z,38.08
2023-04-04T20:13:25.884Z,38.53
2023-04-04T20:16:03.951Z,41.95
2023-04-04T20:18:39.820Z,34.75
2023-04-04T20:21:24.576Z,34.30
2023-04-04T20:24:10.984Z,34.78
2023-04-04T20:26:58.222Z,33.55
2023-04-04T20:29:38.033Z,32.70
2023-04-04T20:32:11.289Z,29.30
2023-04-04T20:34:50.746Z,38.90
2023-04-04T20:37:26.719Z,34.33
2023-04-04T20:40:06.341Z,32.15
2023-04-04T20:42:41.307Z,36.33
2023-04-04T20:45:31.915Z,30.08
2023-04-04T20:48:07.500Z,31.65
2023-04-04T20:50:44.340Z,34.08
2023-04-04T20:53:19.777Z,31.75
2023-04-04T20:55:54.347Z,27.77
2023-04-04T20:58:31.475Z,29.12
2023-04-04T21:01:04.724Z,31.42
2023-04-04T21:03:38.801Z,28.55
2023-04-04T21:06:17.748Z,28.80
2023-04-04T21:08:52.433Z,35.63
2023-04-04T21:11:30.823Z,39.20
2023-04-04T21:14:03.672Z,41.70
2023-04-04T21:16:38.549Z,33.40
2023-04-04T21:19:12.991Z,39.70
2023-04-04T21:21:46.159Z,28.12
2023-04-04T21:24:19.304Z,26.15
2023-04-04T21:26:52.375Z,27.65
2023-04-04T21:29:29.938Z,25.30
2023-04-04T21:32:04.130Z,26.68
2023-04-04T21:34:37.192Z,22.35
2023-04-04T21:37:11.968Z,22.77
2023-04-04T21:39:45.368Z,25.72
2023-04-04T21:42:19.866Z,23.92
2023-04-04T21:44:52.904Z,24.80
2023-04-04T21:47:25.638Z,28.07
2023-04-04T21:49:59.921Z,22.45
2023-04-04T21:52:33.197Z,22.07
2023-04-04T21:55:06.664Z,22.25
2023-04-04T22:00:13.960Z,20.48
2023-04-04T22:02:47.398Z,23.90
2023-04-04T22:05:23.826Z,23.18
2023-04-04T22:07:55.366Z,22.85
2023-04-04T22:10:29.823Z,21.15
2023-04-04T22:13:04.469Z,22.17
2023-04-04T22:15:38.862Z,21.57
2023-04-04T22:18:13.690Z,21.48
2023-04-04T22:20:51.171Z,27.20
2023-04-04T22:23:23.964Z,23.73
2023-04-04T22:25:56.926Z,18.23
2023-04-04T22:28:30.082Z,23.87
2023-04-04T22:31:04.607Z,22.32
2023-04-04T22:33:38.865Z,22.62
2023-04-04T22:36:11.973Z,21.05
2023-04-04T22:38:45.387Z,22.42
2023-04-04T22:41:18.150Z,24.35
2023-04-04T22:43:52.645Z,20.97
2023-04-04T22:46:26.961Z,21.82
2023-04-04T22:49:06.129Z,20.45
2023-04-04T22:51:40.701Z,21.37
2023-04-04T22:54:16.994Z,26.60
2023-04-04T22:56:50.513Z,20.15
2023-04-04T22:59:24.006Z,21.37
2023-04-04T23:01:58.048Z,20.20
2023-04-04T23:04:31.619Z,21.50
2023-04-04T23:07:04.543Z,21.57
2023-04-04T23:09:38.610Z,20.95
2023-04-04T23:12:11.944Z,21.33
2023-04-04T23:14:47.516Z,30.97
2023-04-04T23:17:20.351Z,23.77
2023-04-04T23:19:53.268Z,29.90
2023-04-04T23:22:27.164Z,25.25
2023-04-04T23:25:00.351Z,24.20
2023-04-04T23:27:33.843Z,24.57
2023-04-04T23:30:08.394Z,24.57
2023-04-04T23:32:42.597Z,25.77
2023-04-04T23:35:16.160Z,25.75
2023-04-04T23:37:49.021Z,23.73
2023-04-04T23:40:22.348Z,29.05
2023-04-04T23:42:56.076Z,26.10
2023-04-04T23:45:29.599Z,26.80
2023-04-04T23:48:03.191Z,25.95
2023-04-04T23:50:36.200Z,24.55
2023-04-04T23:53:09.216Z,22.13
2023-04-04T23:55:42.501Z,24.15
2023-04-04T23:58:17.247Z,25.97
